»·PEaware :: N55NT KBOI-U62

N55NT :: KBOI-U62

FLIGHT INFORMATION

Flight Status: Arrived
Operator: Privately registered:
United States
More flights under this callsign
Pilot: Craig H. (6968)
Aircraft: CESSNA 172 SKYHAWK
(C172)
More flights by this aircraft type
Origin: KBOI Boise Air Terminal/Gowen
United States
Destination: U62 Mackay
United States
More flights between these airports :: More routes between these airports
Route: +
File this flight plan on PilotEdge
Remarks:
Altitude:
(Current/Filed)
13,500ft
Speed:
(Current/Filed)
0kts
Departed: 06-Dec-19 01:22 PM
Arrived: 06-Dec-19 02:19 PM
Distance/Time
Traveled:
115nm/0:56
Distance/Time
To Go:
Arrived

Flight Plot

Page will automatically refresh every two minutes.

Flight plan parsing failed; only flown route is shown


Map Options




Map Legend


Flown Route
Filed Route
Departure Airport
Arrival Airport
Navaid (VOR, NDB)
Fix

Horizontal Profiles

Position Reports

Time Latitude Longitude Heading Altitude Ground
Speed
06-Dec-19 13:13 43.568850 -116.227590 182 2839ft 0kts
06-Dec-19 13:14 43.568850 -116.227590 182 2839ft 0kts
06-Dec-19 13:15 43.568850 -116.227590 183 2839ft 0kts
06-Dec-19 13:16 43.568905 -116.229580 295 2836ft 13kts
06-Dec-19 13:17 43.570981 -116.235813 264 2824ft 14kts
06-Dec-19 13:18 43.570932 -116.236105 247 2824ft 0kts
06-Dec-19 13:19 43.570932 -116.236105 247 2824ft 0kts
06-Dec-19 13:20 43.570863 -116.236232 217 2824ft 3kts
06-Dec-19 13:21 43.566652 -116.226800 122 3113ft 68kts
06-Dec-19 13:22 43.560285 -116.202487 106 4221ft 71kts
06-Dec-19 13:23 43.561880 -116.173928 81 5232ft 80kts
06-Dec-19 13:24 43.565307 -116.141818 80 6127ft 89kts
06-Dec-19 13:25 43.570723 -116.108199 73 7010ft 91kts
06-Dec-19 13:26 43.578442 -116.074907 73 7827ft 93kts
06-Dec-19 13:27 43.584398 -116.040657 83 8642ft 91kts
06-Dec-19 13:28 43.589471 -116.005850 81 9386ft 94kts
06-Dec-19 13:29 43.594837 -115.969810 82 10057ft 98kts
06-Dec-19 13:30 43.600069 -115.932282 84 10699ft 101kts
06-Dec-19 13:31 43.605529 -115.893091 83 11286ft 107kts
06-Dec-19 13:32 43.611067 -115.852602 84 11866ft 108kts
06-Dec-19 13:33 43.616405 -115.814457 92 12740ft 84kts
06-Dec-19 13:34 43.618938 -115.781179 85 13373ft 98kts
06-Dec-19 13:35 43.624918 -115.739639 88 13684ft 137kts
06-Dec-19 13:36 43.631867 -115.683763 79 13775ft 149kts
06-Dec-19 13:37 43.641897 -115.628865 80 13609ft 143kts
06-Dec-19 13:38 43.648624 -115.577005 86 13572ft 140kts
06-Dec-19 13:39 43.654865 -115.524345 84 13542ft 140kts
06-Dec-19 13:40 43.661131 -115.471050 85 13519ft 140kts
06-Dec-19 13:41 43.666152 -115.417737 86 13526ft 139kts
06-Dec-19 13:42 43.671780 -115.363666 84 13444ft 143kts
06-Dec-19 13:43 43.677183 -115.309679 89 13401ft 140kts
06-Dec-19 13:44 43.680312 -115.256478 93 13438ft 136kts
06-Dec-19 13:45 43.678829 -115.203975 99 13427ft 137kts
06-Dec-19 13:46 43.673611 -115.151996 104 13412ft 137kts
06-Dec-19 13:47 43.664624 -115.101342 106 13412ft 135kts
06-Dec-19 13:48 43.662928 -115.047960 92 13367ft 140kts
06-Dec-19 13:49 43.665527 -114.994700 84 13378ft 143kts
06-Dec-19 13:50 43.672211 -114.941397 77 13482ft 135kts
06-Dec-19 13:51 43.680639 -114.889664 79 13650ft 129kts
06-Dec-19 13:52 43.686921 -114.850536 63 14588ft 105kts
06-Dec-19 13:53 43.694540 -114.810097 76 14839ft 135kts
06-Dec-19 13:54 43.703167 -114.761928 75 14953ft 143kts
06-Dec-19 13:55 43.713749 -114.708067 74 14977ft 147kts
06-Dec-19 13:56 43.725021 -114.652580 76 14931ft 150kts
06-Dec-19 13:57 43.734939 -114.597011 76 14954ft 148kts
06-Dec-19 13:58 43.743866 -114.541117 78 14950ft 148kts
06-Dec-19 13:59 43.752584 -114.484995 79 14954ft 148kts
06-Dec-19 14:00 43.761842 -114.429086 75 14909ft 151kts
06-Dec-19 14:01 43.773722 -114.374146 71 14934ft 145kts
06-Dec-19 14:02 43.785616 -114.320774 73 14936ft 144kts
06-Dec-19 14:03 43.797531 -114.268248 71 14965ft 142kts
06-Dec-19 14:04 43.809779 -114.215954 74 14972ft 143kts
06-Dec-19 14:05 43.820649 -114.162464 75 14955ft 143kts
06-Dec-19 14:06 43.829835 -114.108763 76 14948ft 143kts
06-Dec-19 14:07 43.840616 -114.055436 74 14950ft 143kts
06-Dec-19 14:08 43.852194 -114.002304 72 14950ft 144kts
06-Dec-19 14:09 43.864821 -113.949364 69 14947ft 142kts
06-Dec-19 14:10 43.876582 -113.894629 76 14697ft 155kts
06-Dec-19 14:11 43.890488 -113.839015 68 13723ft 147kts
06-Dec-19 14:12 43.908458 -113.792169 52 12950ft 129kts
06-Dec-19 14:13 43.931380 -113.750968 49 11816ft 139kts
06-Dec-19 14:14 43.948924 -113.703462 90 10120ft 143kts
06-Dec-19 14:15 43.941140 -113.650164 127 7951ft 149kts
06-Dec-19 14:16 43.926413 -113.616551 187 7178ft 78kts
06-Dec-19 14:17 43.922718 -113.612921 186 6465ft 72kts
06-Dec-19 14:18 43.908440 -113.600235 109 5887ft 3kts
06-Dec-19 14:19 43.910134 -113.602556 314 5893ft 17kts
06-Dec-19 14:20 43.910923 -113.605750 309 5892ft 0kts

Navigation Log

Ident Type
Flight plan parsing failed, navigation log unavailable